sensor_id;sensor_type;location;lat;lon;timestamp;temperature;humidity
43581;DHT22;29175;51.030;4.606;2024-01-11T00:00:34;-3.20;99.90
43581;DHT22;29175;51.030;4.606;2024-01-11T00:03:00;-3.30;99.90
43581;DHT22;29175;51.030;4.606;2024-01-11T00:05:26;-3.20;99.90
43581;DHT22;29175;51.030;4.606;2024-01-11T00:07:52;-3.20;99.90
43581;DHT22;29175;51.030;4.606;2024-01-11T00:10:17;-3.20;99.90
43581;DHT22;29175;51.030;4.606;2024-01-11T00:12:43;-3.20;99.90
43581;DHT22;29175;51.030;4.606;2024-01-11T00:15:09;-3.20;99.90
43581;DHT22;29175;51.030;4.606;2024-01-11T00:17:35;-3.20;99.90
43581;DHT22;29175;51.030;4.606;2024-01-11T00:20:01;-3.10;99.90
43581;DHT22;29175;51.030;4.606;2024-01-11T00:22:26;-3.10;99.90
43581;DHT22;29175;51.030;4.606;2024-01-11T00:24:52;-3.20;99.90
43581;DHT22;29175;51.030;4.606;2024-01-11T00:27:18;-3.20;99.90
43581;DHT22;29175;51.030;4.606;2024-01-11T00:29:43;-3.20;99.90
43581;DHT22;29175;51.030;4.606;2024-01-11T00:32:09;-3.20;99.90
43581;DHT22;29175;51.030;4.606;2024-01-11T00:34:35;-3.40;99.90
43581;DHT22;29175;51.030;4.606;2024-01-11T00:37:03;-3.30;99.90
43581;DHT22;29175;51.030;4.606;2024-01-11T00:39:28;-3.30;99.90
43581;DHT22;29175;51.030;4.606;2024-01-11T00:41:55;-3.30;99.90
43581;DHT22;29175;51.030;4.606;2024-01-11T00:44:20;-3.40;99.90
43581;DHT22;29175;51.030;4.606;2024-01-11T00:46:46;-3.40;99.90
43581;DHT22;29175;51.030;4.606;2024-01-11T00:49:12;-3.40;99.90
43581;DHT22;29175;51.030;4.606;2024-01-11T00:51:37;-3.50;99.90
43581;DHT22;29175;51.030;4.606;2024-01-11T00:54:03;-3.60;99.90
43581;DHT22;29175;51.030;4.606;2024-01-11T00:56:29;-3.70;99.90
43581;DHT22;29175;51.030;4.606;2024-01-11T00:58:54;-3.70;99.90
43581;DHT22;29175;51.030;4.606;2024-01-11T01:01:22;-3.60;99.90
43581;DHT22;29175;51.030;4.606;2024-01-11T01:03:48;-3.50;99.90
43581;DHT22;29175;51.030;4.606;2024-01-11T01:06:14;-3.50;99.90
43581;DHT22;29175;51.030;4.606;2024-01-11T01:08:40;-3.50;99.90
43581;DHT22;29175;51.030;4.606;2024-01-11T01:11:05;-3.50;99.90
43581;DHT22;29175;51.030;4.606;2024-01-11T01:13:31;-3.60;99.90
43581;DHT22;29175;51.030;4.606;2024-01-11T01:15:57;-3.60;99.90
43581;DHT22;29175;51.030;4.606;2024-01-11T01:18:23;-3.50;99.90
43581;DHT22;29175;51.030;4.606;2024-01-11T01:20:49;-3.60;99.90
43581;DHT22;29175;51.030;4.606;2024-01-11T01:23:15;-3.50;99.90
43581;DHT22;29175;51.030;4.606;2024-01-11T01:25:41;-3.50;99.90
43581;DHT22;29175;51.030;4.606;2024-01-11T01:28:06;-3.50;99.90
43581;DHT22;29175;51.030;4.606;2024-01-11T01:30:32;-3.60;99.90
43581;DHT22;29175;51.030;4.606;2024-01-11T01:32:57;-3.50;99.90
43581;DHT22;29175;51.030;4.606;2024-01-11T01:35:23;-3.40;99.90
43581;DHT22;29175;51.030;4.606;2024-01-11T01:37:49;-3.50;99.90
43581;DHT22;29175;51.030;4.606;2024-01-11T01:40:17;-3.50;99.90
43581;DHT22;29175;51.030;4.606;2024-01-11T01:42:43;-3.60;99.90
43581;DHT22;29175;51.030;4.606;2024-01-11T01:45:12;-3.70;99.90
43581;DHT22;29175;51.030;4.606;2024-01-11T01:47:38;-3.60;99.90
43581;DHT22;29175;51.030;4.606;2024-01-11T01:50:05;-3.70;99.90
43581;DHT22;29175;51.030;4.606;2024-01-11T01:52:31;-3.80;99.90
43581;DHT22;29175;51.030;4.606;2024-01-11T01:54:58;-3.70;99.90
43581;DHT22;29175;51.030;4.606;2024-01-11T01:57:25;-3.70;99.90
43581;DHT22;29175;51.030;4.606;2024-01-11T01:59:50;-3.60;99.90
43581;DHT22;29175;51.030;4.606;2024-01-11T02:02:18;-3.60;99.90
43581;DHT22;29175;51.030;4.606;2024-01-11T02:04:44;-3.60;99.90
43581;DHT22;29175;51.030;4.606;2024-01-11T02:07:10;-3.60;99.90
43581;DHT22;29175;51.030;4.606;2024-01-11T02:09:36;-3.60;99.90
43581;DHT22;29175;51.030;4.606;2024-01-11T02:12:02;-3.80;99.90
43581;DHT22;29175;51.030;4.606;2024-01-11T02:14:29;-3.80;99.90
43581;DHT22;29175;51.030;4.606;2024-01-11T02:16:55;-3.80;99.90
43581;DHT22;29175;51.030;4.606;2024-01-11T02:19:21;-3.80;99.90
43581;DHT22;29175;51.030;4.606;2024-01-11T02:21:49;-3.70;99.90
43581;DHT22;29175;51.030;4.606;2024-01-11T02:24:15;-3.70;99.90
43581;DHT22;29175;51.030;4.606;2024-01-11T02:27:00;-3.70;99.90
43581;DHT22;29175;51.030;4.606;2024-01-11T02:29:26;-3.70;99.90
43581;DHT22;29175;51.030;4.606;2024-01-11T02:31:51;-3.80;99.90
43581;DHT22;29175;51.030;4.606;2024-01-11T02:34:17;-3.90;99.90
43581;DHT22;29175;51.030;4.606;2024-01-11T02:36:43;-3.90;99.90
43581;DHT22;29175;51.030;4.606;2024-01-11T02:39:09;-3.90;99.90
43581;DHT22;29175;51.030;4.606;2024-01-11T02:41:36;-3.90;99.90
43581;DHT22;29175;51.030;4.606;2024-01-11T02:44:02;-3.90;99.90
43581;DHT22;29175;51.030;4.606;2024-01-11T02:46:28;-3.80;99.90
43581;DHT22;29175;51.030;4.606;2024-01-11T02:48:53;-3.80;99.90
43581;DHT22;29175;51.030;4.606;2024-01-11T02:51:20;-3.80;99.90
43581;DHT22;29175;51.030;4.606;2024-01-11T02:53:46;-3.90;99.90
43581;DHT22;29175;51.030;4.606;2024-01-11T02:56:11;-4.20;99.90
43581;DHT22;29175;51.030;4.606;2024-01-11T02:58:37;-4.10;99.90
43581;DHT22;29175;51.030;4.606;2024-01-11T03:01:03;-4.00;99.90
43581;DHT22;29175;51.030;4.606;2024-01-11T03:03:29;-4.10;99.90
43581;DHT22;29175;51.030;4.606;2024-01-11T03:05:56;-4.10;99.90
43581;DHT22;29175;51.030;4.606;2024-01-11T03:08:22;-4.10;99.90
43581;DHT22;29175;51.030;4.606;2024-01-11T03:10:47;-4.20;99.90
43581;DHT22;29175;51.030;4.606;2024-01-11T03:13:13;-4.10;99.90
43581;DHT22;29175;51.030;4.606;2024-01-11T03:15:39;-4.00;99.90
43581;DHT22;29175;51.030;4.606;2024-01-11T03:18:04;-4.10;99.90
43581;DHT22;29175;51.030;4.606;2024-01-11T03:20:30;-4.10;99.90
43581;DHT22;29175;51.030;4.606;2024-01-11T03:22:56;-4.00;99.90
43581;DHT22;29175;51.030;4.606;2024-01-11T03:25:21;-3.90;99.90
43581;DHT22;29175;51.030;4.606;2024-01-11T03:27:47;-3.90;99.90
43581;DHT22;29175;51.030;4.606;2024-01-11T03:30:13;-4.00;99.90
43581;DHT22;29175;51.030;4.606;2024-01-11T03:32:38;-4.10;99.90
43581;DHT22;29175;51.030;4.606;2024-01-11T03:35:07;-4.20;99.90
43581;DHT22;29175;51.030;4.606;2024-01-11T03:37:33;-4.20;99.90
43581;DHT22;29175;51.030;4.606;2024-01-11T03:39:59;-4.20;99.90
43581;DHT22;29175;51.030;4.606;2024-01-11T03:42:24;-4.20;99.90
43581;DHT22;29175;51.030;4.606;2024-01-11T03:44:50;-4.20;99.90
43581;DHT22;29175;51.030;4.606;2024-01-11T03:47:16;-4.20;99.90
43581;DHT22;29175;51.030;4.606;2024-01-11T03:49:41;-4.30;99.90
43581;DHT22;29175;51.030;4.606;2024-01-11T03:52:07;-4.20;99.90
43581;DHT22;29175;51.030;4.606;2024-01-11T03:54:32;-4.10;99.90
43581;DHT22;29175;51.030;4.606;2024-01-11T03:56:59;-4.10;99.90
43581;DHT22;29175;51.030;4.606;2024-01-11T03:59:24;-4.10;99.90
43581;DHT22;29175;51.030;4.606;2024-01-11T04:01:50;-4.20;99.90
43581;DHT22;29175;51.030;4.606;2024-01-11T04:04:16;-4.10;99.90
43581;DHT22;29175;51.030;4.606;2024-01-11T04:06:42;-4.20;99.90
43581;DHT22;29175;51.030;4.606;2024-01-11T04:09:07;-4.10;99.90
43581;DHT22;29175;51.030;4.606;2024-01-11T04:11:33;-4.10;99.90
43581;DHT22;29175;51.030;4.606;2024-01-11T04:13:58;-4.10;99.90
43581;DHT22;29175;51.030;4.606;2024-01-11T04:16:24;-4.10;99.90
43581;DHT22;29175;51.030;4.606;2024-01-11T04:18:50;-4.10;99.90
43581;DHT22;29175;51.030;4.606;2024-01-11T04:21:22;-4.20;99.90
43581;DHT22;29175;51.030;4.606;2024-01-11T04:23:48;-4.10;99.90
43581;DHT22;29175;51.030;4.606;2024-01-11T04:26:14;-4.10;99.90
43581;DHT22;29175;51.030;4.606;2024-01-11T04:28:40;-4.00;99.90
43581;DHT22;29175;51.030;4.606;2024-01-11T04:31:07;-4.00;99.90
43581;DHT22;29175;51.030;4.606;2024-01-11T04:33:33;-4.00;99.90
43581;DHT22;29175;51.030;4.606;2024-01-11T04:35:59;-4.10;99.90
43581;DHT22;29175;51.030;4.606;2024-01-11T04:38:24;-4.10;99.90
43581;DHT22;29175;51.030;4.606;2024-01-11T04:40:50;-4.00;99.90
43581;DHT22;29175;51.030;4.606;2024-01-11T04:43:16;-4.10;99.90
43581;DHT22;29175;51.030;4.606;2024-01-11T04:45:41;-4.10;99.90
43581;DHT22;29175;51.030;4.606;2024-01-11T04:48:07;-4.10;99.90
43581;DHT22;29175;51.030;4.606;2024-01-11T04:50:32;-4.10;99.90
43581;DHT22;29175;51.030;4.606;2024-01-11T04:52:58;-4.10;99.90
43581;DHT22;29175;51.030;4.606;2024-01-11T04:55:24;-4.10;99.90
43581;DHT22;29175;51.030;4.606;2024-01-11T04:57:49;-4.00;99.90
43581;DHT22;29175;51.030;4.606;2024-01-11T05:00:15;-4.10;99.90
43581;DHT22;29175;51.030;4.606;2024-01-11T05:02:41;-4.10;99.90
43581;DHT22;29175;51.030;4.606;2024-01-11T05:05:07;-4.10;99.90
43581;DHT22;29175;51.030;4.606;2024-01-11T05:07:34;-4.20;99.90
43581;DHT22;29175;51.030;4.606;2024-01-11T05:10:00;-4.20;99.90
43581;DHT22;29175;51.030;4.606;2024-01-11T05:12:25;-4.10;99.90
43581;DHT22;29175;51.030;4.606;2024-01-11T05:14:51;-4.20;99.90
43581;DHT22;29175;51.030;4.606;2024-01-11T05:17:16;-4.20;99.90
43581;DHT22;29175;51.030;4.606;2024-01-11T05:19:42;-4.10;99.90
43581;DHT22;29175;51.030;4.606;2024-01-11T05:22:08;-4.00;99.90
43581;DHT22;29175;51.030;4.606;2024-01-11T05:24:33;-4.10;99.90
43581;DHT22;29175;51.030;4.606;2024-01-11T05:26:59;-4.10;99.90
43581;DHT22;29175;51.030;4.606;2024-01-11T05:29:25;-4.20;99.90
43581;DHT22;29175;51.030;4.606;2024-01-11T05:31:50;-4.30;99.90
43581;DHT22;29175;51.030;4.606;2024-01-11T05:34:16;-4.20;99.90
43581;DHT22;29175;51.030;4.606;2024-01-11T05:36:42;-4.20;99.90
43581;DHT22;29175;51.030;4.606;2024-01-11T05:39:07;-4.20;99.90
43581;DHT22;29175;51.030;4.606;2024-01-11T05:41:33;-4.20;99.90
43581;DHT22;29175;51.030;4.606;2024-01-11T05:43:58;-4.10;99.90
43581;DHT22;29175;51.030;4.606;2024-01-11T05:46:24;-4.10;99.90
43581;DHT22;29175;51.030;4.606;2024-01-11T05:48:49;-4.20;99.90
43581;DHT22;29175;51.030;4.606;2024-01-11T05:51:15;-4.40;99.90
43581;DHT22;29175;51.030;4.606;2024-01-11T05:53:41;-4.40;99.90
43581;DHT22;29175;51.030;4.606;2024-01-11T05:56:07;-4.30;99.90
43581;DHT22;29175;51.030;4.606;2024-01-11T05:58:33;-4.40;99.90
43581;DHT22;29175;51.030;4.606;2024-01-11T06:00:59;-4.40;99.90
43581;DHT22;29175;51.030;4.606;2024-01-11T06:03:24;-4.30;99.90
43581;DHT22;29175;51.030;4.606;2024-01-11T06:05:50;-4.20;99.90
43581;DHT22;29175;51.030;4.606;2024-01-11T06:08:16;-4.10;99.90
43581;DHT22;29175;51.030;4.606;2024-01-11T06:10:42;-4.10;99.90
43581;DHT22;29175;51.030;4.606;2024-01-11T06:13:07;-4.30;99.90
43581;DHT22;29175;51.030;4.606;2024-01-11T06:15:34;-4.20;99.90
43581;DHT22;29175;51.030;4.606;2024-01-11T06:18:00;-4.30;99.90
43581;DHT22;29175;51.030;4.606;2024-01-11T06:20:26;-4.30;99.90
43581;DHT22;29175;51.030;4.606;2024-01-11T06:22:52;-4.30;99.90
43581;DHT22;29175;51.030;4.606;2024-01-11T06:25:18;-4.30;99.90
43581;DHT22;29175;51.030;4.606;2024-01-11T06:27:44;-4.40;99.90
43581;DHT22;29175;51.030;4.606;2024-01-11T06:30:10;-4.40;99.90
43581;DHT22;29175;51.030;4.606;2024-01-11T06:32:35;-4.40;99.90
43581;DHT22;29175;51.030;4.606;2024-01-11T06:35:02;-4.20;99.90
43581;DHT22;29175;51.030;4.606;2024-01-11T06:37:28;-4.60;99.90
43581;DHT22;29175;51.030;4.606;2024-01-11T06:39:54;-4.40;99.90
43581;DHT22;29175;51.030;4.606;2024-01-11T06:42:20;-4.40;99.90
43581;DHT22;29175;51.030;4.606;2024-01-11T06:44:46;-4.40;99.90
43581;DHT22;29175;51.030;4.606;2024-01-11T06:47:12;-4.40;99.90
43581;DHT22;29175;51.030;4.606;2024-01-11T06:49:38;-4.50;99.90
43581;DHT22;29175;51.030;4.606;2024-01-11T06:52:05;-4.30;99.90
43581;DHT22;29175;51.030;4.606;2024-01-11T06:54:30;-4.40;99.90
43581;DHT22;29175;51.030;4.606;2024-01-11T06:56:57;-4.40;99.90
43581;DHT22;29175;51.030;4.606;2024-01-11T06:59:23;-4.50;99.90
43581;DHT22;29175;51.030;4.606;2024-01-11T07:01:48;-4.60;99.90
43581;DHT22;29175;51.030;4.606;2024-01-11T07:04:14;-4.70;99.90
43581;DHT22;29175;51.030;4.606;2024-01-11T07:06:40;-4.70;99.90
43581;DHT22;29175;51.030;4.606;2024-01-11T07:09:06;-4.80;99.90
43581;DHT22;29175;51.030;4.606;2024-01-11T07:11:31;-4.70;99.90
43581;DHT22;29175;51.030;4.606;2024-01-11T07:13:57;-4.80;99.90
43581;DHT22;29175;51.030;4.606;2024-01-11T07:16:23;-4.80;99.90
43581;DHT22;29175;51.030;4.606;2024-01-11T07:18:49;-4.80;99.90
43581;DHT22;29175;51.030;4.606;2024-01-11T07:21:24;-4.70;99.90
43581;DHT22;29175;51.030;4.606;2024-01-11T07:23:59;-4.90;99.90
43581;DHT22;29175;51.030;4.606;2024-01-11T07:26:26;-4.80;99.90
43581;DHT22;29175;51.030;4.606;2024-01-11T07:28:52;-4.80;99.90
43581;DHT22;29175;51.030;4.606;2024-01-11T07:31:20;-4.90;99.90
43581;DHT22;29175;51.030;4.606;2024-01-11T07:33:45;-5.00;99.90
43581;DHT22;29175;51.030;4.606;2024-01-11T07:36:11;-5.10;99.90
43581;DHT22;29175;51.030;4.606;2024-01-11T07:38:37;-5.10;99.90
43581;DHT22;29175;51.030;4.606;2024-01-11T07:41:03;-5.00;99.90
43581;DHT22;29175;51.030;4.606;2024-01-11T07:43:28;-5.00;99.90
43581;DHT22;29175;51.030;4.606;2024-01-11T07:45:54;-5.00;99.90
43581;DHT22;29175;51.030;4.606;2024-01-11T07:48:22;-5.10;99.90
43581;DHT22;29175;51.030;4.606;2024-01-11T07:50:48;-5.00;99.90
43581;DHT22;29175;51.030;4.606;2024-01-11T07:53:14;-4.90;99.90
43581;DHT22;29175;51.030;4.606;2024-01-11T07:55:40;-5.00;99.90
43581;DHT22;29175;51.030;4.606;2024-01-11T07:58:07;-5.00;99.90
43581;DHT22;29175;51.030;4.606;2024-01-11T08:00:33;-4.90;99.90
43581;DHT22;29175;51.030;4.606;2024-01-11T08:02:59;-5.10;99.90
43581;DHT22;29175;51.030;4.606;2024-01-11T08:05:24;-5.30;99.90
43581;DHT22;29175;51.030;4.606;2024-01-11T08:07:51;-5.00;99.90
43581;DHT22;29175;51.030;4.606;2024-01-11T08:10:17;-5.00;99.90
43581;DHT22;29175;51.030;4.606;2024-01-11T08:12:43;-5.00;99.90
43581;DHT22;29175;51.030;4.606;2024-01-11T08:15:08;-5.00;99.90
43581;DHT22;29175;51.030;4.606;2024-01-11T08:17:46;-5.10;99.90
43581;DHT22;29175;51.030;4.606;2024-01-11T08:20:12;-5.20;99.90
43581;DHT22;29175;51.030;4.606;2024-01-11T08:22:41;-5.10;99.90
43581;DHT22;29175;51.030;4.606;2024-01-11T08:25:08;-4.80;99.90
43581;DHT22;29175;51.030;4.606;2024-01-11T08:27:34;-4.80;99.90
43581;DHT22;29175;51.030;4.606;2024-01-11T08:30:00;-4.60;99.90
43581;DHT22;29175;51.030;4.606;2024-01-11T08:32:26;-4.70;99.90
43581;DHT22;29175;51.030;4.606;2024-01-11T08:34:52;-4.60;99.90
43581;DHT22;29175;51.030;4.606;2024-01-11T08:37:18;-4.90;99.90
43581;DHT22;29175;51.030;4.606;2024-01-11T08:39:44;-4.90;99.90
43581;DHT22;29175;51.030;4.606;2024-01-11T08:42:11;-4.80;99.90
43581;DHT22;29175;51.030;4.606;2024-01-11T08:44:40;-4.60;99.90
43581;DHT22;29175;51.030;4.606;2024-01-11T08:47:06;-4.40;99.90
43581;DHT22;29175;51.030;4.606;2024-01-11T08:49:32;-4.30;99.90
43581;DHT22;29175;51.030;4.606;2024-01-11T08:51:58;-4.20;99.90
43581;DHT22;29175;51.030;4.606;2024-01-11T08:54:23;-4.20;99.90
43581;DHT22;29175;51.030;4.606;2024-01-11T08:56:49;-4.30;99.90
43581;DHT22;29175;51.030;4.606;2024-01-11T08:59:15;-4.30;99.90
43581;DHT22;29175;51.030;4.606;2024-01-11T09:01:40;-4.20;99.90
43581;DHT22;29175;51.030;4.606;2024-01-11T09:04:06;-4.10;99.90
43581;DHT22;29175;51.030;4.606;2024-01-11T09:06:33;-3.90;99.90
43581;DHT22;29175;51.030;4.606;2024-01-11T09:09:00;-3.80;99.90
43581;DHT22;29175;51.030;4.606;2024-01-11T09:11:26;-3.60;99.90
43581;DHT22;29175;51.030;4.606;2024-01-11T09:13:52;-3.80;99.90
43581;DHT22;29175;51.030;4.606;2024-01-11T09:16:17;-3.90;99.90
43581;DHT22;29175;51.030;4.606;2024-01-11T09:18:43;-3.80;99.90
43581;DHT22;29175;51.030;4.606;2024-01-11T09:21:09;-3.70;99.90
43581;DHT22;29175;51.030;4.606;2024-01-11T09:23:36;-3.70;99.90
43581;DHT22;29175;51.030;4.606;2024-01-11T09:26:01;-3.60;99.90
43581;DHT22;29175;51.030;4.606;2024-01-11T09:28:27;-3.40;99.90
43581;DHT22;29175;51.030;4.606;2024-01-11T09:30:53;-3.40;99.90
43581;DHT22;29175;51.030;4.606;2024-01-11T09:33:19;-3.40;99.90
43581;DHT22;29175;51.030;4.606;2024-01-11T09:35:45;-3.20;99.90
43581;DHT22;29175;51.030;4.606;2024-01-11T09:38:10;-3.20;99.90
43581;DHT22;29175;51.030;4.606;2024-01-11T09:40:36;-3.10;99.90
43581;DHT22;29175;51.030;4.606;2024-01-11T09:43:02;-3.20;99.90
43581;DHT22;29175;51.030;4.606;2024-01-11T09:45:29;-3.20;99.90
43581;DHT22;29175;51.030;4.606;2024-01-11T09:47:55;-3.20;99.90
43581;DHT22;29175;51.030;4.606;2024-01-11T09:50:21;-3.30;99.90
43581;DHT22;29175;51.030;4.606;2024-01-11T09:52:50;-3.30;99.90
43581;DHT22;29175;51.030;4.606;2024-01-11T09:55:17;-3.10;99.90
43581;DHT22;29175;51.030;4.606;2024-01-11T09:57:46;-3.10;99.90
43581;DHT22;29175;51.030;4.606;2024-01-11T10:00:13;-3.10;99.90
43581;DHT22;29175;51.030;4.606;2024-01-11T10:02:42;-2.90;99.90
43581;DHT22;29175;51.030;4.606;2024-01-11T10:05:08;-2.80;99.90
43581;DHT22;29175;51.030;4.606;2024-01-11T10:07:34;-2.70;99.90
43581;DHT22;29175;51.030;4.606;2024-01-11T10:10:02;-2.60;99.90
43581;DHT22;29175;51.030;4.606;2024-01-11T10:12:28;-2.60;99.90
43581;DHT22;29175;51.030;4.606;2024-01-11T10:14:54;-2.60;99.90
43581;DHT22;29175;51.030;4.606;2024-01-11T10:17:20;-2.60;99.90
43581;DHT22;29175;51.030;4.606;2024-01-11T10:19:45;-2.60;99.90
43581;DHT22;29175;51.030;4.606;2024-01-11T10:22:11;-2.50;99.90
43581;DHT22;29175;51.030;4.606;2024-01-11T10:24:38;-2.50;99.90
43581;DHT22;29175;51.030;4.606;2024-01-11T10:27:04;-2.60;99.90
43581;DHT22;29175;51.030;4.606;2024-01-11T10:29:31;-2.50;99.90
43581;DHT22;29175;51.030;4.606;2024-01-11T10:31:57;-2.20;99.90
43581;DHT22;29175;51.030;4.606;2024-01-11T10:34:23;-1.50;99.90
43581;DHT22;29175;51.030;4.606;2024-01-11T10:36:49;-1.00;99.90
43581;DHT22;29175;51.030;4.606;2024-01-11T10:39:16;-0.50;99.90
43581;DHT22;29175;51.030;4.606;2024-01-11T10:41:42;0.20;99.90
43581;DHT22;29175;51.030;4.606;2024-01-11T10:44:19;0.30;99.90
43581;DHT22;29175;51.030;4.606;2024-01-11T10:46:49;0.20;99.90
43581;DHT22;29175;51.030;4.606;2024-01-11T10:49:16;-0.20;99.90
43581;DHT22;29175;51.030;4.606;2024-01-11T10:51:44;-0.40;99.90
43581;DHT22;29175;51.030;4.606;2024-01-11T10:54:10;-0.40;99.90
43581;DHT22;29175;51.030;4.606;2024-01-11T10:56:37;0.00;99.90
43581;DHT22;29175;51.030;4.606;2024-01-11T10:59:06;0.60;99.90
43581;DHT22;29175;51.030;4.606;2024-01-11T11:01:31;1.30;99.90
43581;DHT22;29175;51.030;4.606;2024-01-11T11:03:57;2.00;99.90
43581;DHT22;29175;51.030;4.606;2024-01-11T11:06:26;2.60;99.90
43581;DHT22;29175;51.030;4.606;2024-01-11T11:08:53;2.70;99.90
43581;DHT22;29175;51.030;4.606;2024-01-11T11:11:19;2.70;99.90
43581;DHT22;29175;51.030;4.606;2024-01-11T11:13:46;2.60;99.90
43581;DHT22;29175;51.030;4.606;2024-01-11T11:16:14;2.80;99.90
43581;DHT22;29175;51.030;4.606;2024-01-11T11:18:39;3.10;99.90
43581;DHT22;29175;51.030;4.606;2024-01-11T11:21:09;3.10;99.90
43581;DHT22;29175;51.030;4.606;2024-01-11T11:23:36;3.10;99.90
43581;DHT22;29175;51.030;4.606;2024-01-11T11:26:02;3.00;99.90
43581;DHT22;29175;51.030;4.606;2024-01-11T11:28:30;2.60;99.90
43581;DHT22;29175;51.030;4.606;2024-01-11T11:30:58;2.30;99.90
43581;DHT22;29175;51.030;4.606;2024-01-11T11:33:25;2.60;99.90
43581;DHT22;29175;51.030;4.606;2024-01-11T11:35:57;2.50;99.90
43581;DHT22;29175;51.030;4.606;2024-01-11T11:38:24;2.70;99.90
43581;DHT22;29175;51.030;4.606;2024-01-11T11:40:52;2.70;99.90
43581;DHT22;29175;51.030;4.606;2024-01-11T11:43:18;2.80;99.90
43581;DHT22;29175;51.030;4.606;2024-01-11T11:45:45;2.70;99.90
43581;DHT22;29175;51.030;4.606;2024-01-11T11:51:08;2.80;99.90
43581;DHT22;29175;51.030;4.606;2024-01-11T11:53:34;2.80;99.90
43581;DHT22;29175;51.030;4.606;2024-01-11T11:56:00;2.80;99.90
43581;DHT22;29175;51.030;4.606;2024-01-11T11:58:27;3.10;99.90
43581;DHT22;29175;51.030;4.606;2024-01-11T12:00:53;3.00;99.90
43581;DHT22;29175;51.030;4.606;2024-01-11T12:03:19;2.50;99.90
43581;DHT22;29175;51.030;4.606;2024-01-11T12:05:44;2.00;99.90
43581;DHT22;29175;51.030;4.606;2024-01-11T12:08:10;1.50;99.90
43581;DHT22;29175;51.030;4.606;2024-01-11T12:10:36;1.60;99.90
43581;DHT22;29175;51.030;4.606;2024-01-11T12:13:01;2.10;99.90
43581;DHT22;29175;51.030;4.606;2024-01-11T12:15:27;2.50;99.90
43581;DHT22;29175;51.030;4.606;2024-01-11T12:17:59;2.50;99.90
43581;DHT22;29175;51.030;4.606;2024-01-11T12:20:25;2.60;99.90
43581;DHT22;29175;51.030;4.606;2024-01-11T12:22:51;2.70;99.90
43581;DHT22;29175;51.030;4.606;2024-01-11T12:25:16;2.90;99.90
43581;DHT22;29175;51.030;4.606;2024-01-11T12:27:44;3.10;99.90
43581;DHT22;29175;51.030;4.606;2024-01-11T12:30:10;3.00;99.90
43581;DHT22;29175;51.030;4.606;2024-01-11T12:32:39;2.90;99.90
43581;DHT22;29175;51.030;4.606;2024-01-11T12:35:05;2.40;99.90
43581;DHT22;29175;51.030;4.606;2024-01-11T12:37:31;2.10;99.90
43581;DHT22;29175;51.030;4.606;2024-01-11T12:39:57;1.90;99.90
43581;DHT22;29175;51.030;4.606;2024-01-11T12:42:23;1.60;99.90
43581;DHT22;29175;51.030;4.606;2024-01-11T12:44:49;1.40;99.90
43581;DHT22;29175;51.030;4.606;2024-01-11T12:47:16;1.30;99.90
43581;DHT22;29175;51.030;4.606;2024-01-11T12:49:45;1.10;99.90
43581;DHT22;29175;51.030;4.606;2024-01-11T12:52:17;1.00;99.90
43581;DHT22;29175;51.030;4.606;2024-01-11T12:54:43;1.00;99.90
43581;DHT22;29175;51.030;4.606;2024-01-11T12:57:20;1.10;99.90
43581;DHT22;29175;51.030;4.606;2024-01-11T12:59:46;1.10;99.90
43581;DHT22;29175;51.030;4.606;2024-01-11T13:02:11;1.10;99.90
43581;DHT22;29175;51.030;4.606;2024-01-11T13:04:39;1.00;99.90
43581;DHT22;29175;51.030;4.606;2024-01-11T13:07:05;0.90;99.90
43581;DHT22;29175;51.030;4.606;2024-01-11T13:09:31;0.80;99.90
43581;DHT22;29175;51.030;4.606;2024-01-11T13:11:57;0.80;99.90
43581;DHT22;29175;51.030;4.606;2024-01-11T13:14:23;0.90;99.90
43581;DHT22;29175;51.030;4.606;2024-01-11T13:16:49;0.90;99.90
43581;DHT22;29175;51.030;4.606;2024-01-11T13:19:14;0.90;99.90
43581;DHT22;29175;51.030;4.606;2024-01-11T13:21:40;1.00;99.90
43581;DHT22;29175;51.030;4.606;2024-01-11T13:24:06;1.00;99.90
43581;DHT22;29175;51.030;4.606;2024-01-11T13:26:34;1.00;99.90
43581;DHT22;29175;51.030;4.606;2024-01-11T13:29:02;1.00;99.90
43581;DHT22;29175;51.030;4.606;2024-01-11T13:31:28;1.10;99.90
43581;DHT22;29175;51.030;4.606;2024-01-11T13:33:55;1.20;99.90
43581;DHT22;29175;51.030;4.606;2024-01-11T13:36:22;1.20;99.90
43581;DHT22;29175;51.030;4.606;2024-01-11T13:38:48;0.90;99.90
43581;DHT22;29175;51.030;4.606;2024-01-11T13:41:14;1.10;99.90
43581;DHT22;29175;51.030;4.606;2024-01-11T13:43:41;1.10;99.90
43581;DHT22;29175;51.030;4.606;2024-01-11T13:46:07;1.10;99.90
43581;DHT22;29175;51.030;4.606;2024-01-11T13:48:32;1.10;99.90
43581;DHT22;29175;51.030;4.606;2024-01-11T13:50:58;1.20;99.90
43581;DHT22;29175;51.030;4.606;2024-01-11T13:53:25;1.20;99.90
43581;DHT22;29175;51.030;4.606;2024-01-11T13:55:50;1.20;99.90
43581;DHT22;29175;51.030;4.606;2024-01-11T13:58:17;1.20;99.90
43581;DHT22;29175;51.030;4.606;2024-01-11T14:00:43;1.20;99.90
43581;DHT22;29175;51.030;4.606;2024-01-11T14:03:09;1.20;99.90
43581;DHT22;29175;51.030;4.606;2024-01-11T14:05:36;1.20;99.90
43581;DHT22;29175;51.030;4.606;2024-01-11T14:08:02;1.10;99.90
43581;DHT22;29175;51.030;4.606;2024-01-11T14:10:31;1.10;99.90
43581;DHT22;29175;51.030;4.606;2024-01-11T14:12:58;1.10;99.90
43581;DHT22;29175;51.030;4.606;2024-01-11T14:15:23;1.20;99.90
43581;DHT22;29175;51.030;4.606;2024-01-11T14:17:51;1.20;99.90
43581;DHT22;29175;51.030;4.606;2024-01-11T14:20:16;1.20;99.90
43581;DHT22;29175;51.030;4.606;2024-01-11T14:22:44;1.20;99.90
43581;DHT22;29175;51.030;4.606;2024-01-11T14:25:17;1.20;99.90
43581;DHT22;29175;51.030;4.606;2024-01-11T14:27:43;1.30;99.90
43581;DHT22;29175;51.030;4.606;2024-01-11T14:30:10;1.20;99.90
43581;DHT22;29175;51.030;4.606;2024-01-11T14:32:36;1.10;99.90
43581;DHT22;29175;51.030;4.606;2024-01-11T14:35:01;1.30;99.90
43581;DHT22;29175;51.030;4.606;2024-01-11T14:37:30;1.20;99.90
43581;DHT22;29175;51.030;4.606;2024-01-11T14:39:56;1.20;99.90
43581;DHT22;29175;51.030;4.606;2024-01-11T14:42:21;1.10;99.90
43581;DHT22;29175;51.030;4.606;2024-01-11T14:44:48;1.10;99.90
43581;DHT22;29175;51.030;4.606;2024-01-11T14:47:14;1.10;99.90
43581;DHT22;29175;51.030;4.606;2024-01-11T14:49:42;1.20;99.90
43581;DHT22;29175;51.030;4.606;2024-01-11T14:52:07;1.10;99.90
43581;DHT22;29175;51.030;4.606;2024-01-11T14:54:34;1.10;99.90
43581;DHT22;29175;51.030;4.606;2024-01-11T14:56:59;1.00;99.90
43581;DHT22;29175;51.030;4.606;2024-01-11T14:59:25;1.00;99.90
43581;DHT22;29175;51.030;4.606;2024-01-11T15:01:51;1.10;99.90
43581;DHT22;29175;51.030;4.606;2024-01-11T15:04:17;1.20;99.90
43581;DHT22;29175;51.030;4.606;2024-01-11T15:06:43;1.10;99.90
43581;DHT22;29175;51.030;4.606;2024-01-11T15:09:10;1.00;99.90
43581;DHT22;29175;51.030;4.606;2024-01-11T15:11:41;0.90;99.90
43581;DHT22;29175;51.030;4.606;2024-01-11T15:14:07;0.90;99.90
43581;DHT22;29175;51.030;4.606;2024-01-11T15:16:37;0.90;99.90
43581;DHT22;29175;51.030;4.606;2024-01-11T15:19:03;0.80;99.90
43581;DHT22;29175;51.030;4.606;2024-01-11T15:21:29;0.60;99.90
43581;DHT22;29175;51.030;4.606;2024-01-11T15:23:56;0.70;99.90
43581;DHT22;29175;51.030;4.606;2024-01-11T15:26:22;0.60;99.90
43581;DHT22;29175;51.030;4.606;2024-01-11T15:28:48;0.60;99.90
43581;DHT22;29175;51.030;4.606;2024-01-11T15:31:14;0.60;99.90